sensor_id;sensor_type;location;lat;lon;timestamp;pressure;altitude;pressure_sealevel;temperature;humidity
50394;BME280;36308;46.312;25.288;2023-03-22T00:01:10;95917.97;;;8.45;69.61
50394;BME280;36308;46.312;25.288;2023-03-22T00:03:36;95914.22;;;8.46;69.19
50394;BME280;36308;46.312;25.288;2023-03-22T00:06:02;95914.44;;;8.44;69.34
50394;BME280;36308;46.312;25.288;2023-03-22T00:08:28;95910.16;;;8.43;69.46
50394;BME280;36308;46.312;25.288;2023-03-22T00:10:53;95909.59;;;8.41;69.77
50394;BME280;36308;46.312;25.288;2023-03-22T00:13:19;95904.38;;;8.35;69.16
50394;BME280;36308;46.312;25.288;2023-03-22T00:15:45;95909.81;;;8.40;70.08
50394;BME280;36308;46.312;25.288;2023-03-22T00:18:14;95910.59;;;8.40;69.86
50394;BME280;36308;46.312;25.288;2023-03-22T00:20:51;95911.69;;;8.39;70.10
50394;BME280;36308;46.312;25.288;2023-03-22T00:23:17;95913.56;;;8.39;69.73
50394;BME280;36308;46.312;25.288;2023-03-22T00:25:44;95911.91;;;8.38;69.72
50394;BME280;36308;46.312;25.288;2023-03-22T00:28:10;95909.47;;;8.36;70.04
50394;BME280;36308;46.312;25.288;2023-03-22T00:30:35;95898.19;;;8.34;70.08
50394;BME280;36308;46.312;25.288;2023-03-22T00:33:01;95906.22;;;8.34;70.25
50394;BME280;36308;46.312;25.288;2023-03-22T00:35:26;95900.06;;;8.34;70.08
50394;BME280;36308;46.312;25.288;2023-03-22T00:37:52;95904.06;;;8.31;69.81
50394;BME280;36308;46.312;25.288;2023-03-22T00:40:18;95904.63;;;8.33;69.98
50394;BME280;36308;46.312;25.288;2023-03-22T00:42:43;95906.50;;;8.33;70.13
50394;BME280;36308;46.312;25.288;2023-03-22T00:45:10;95903.00;;;8.32;69.72
50394;BME280;36308;46.312;25.288;2023-03-22T00:47:36;95890.28;;;8.22;70.07
50394;BME280;36308;46.312;25.288;2023-03-22T00:50:02;95899.78;;;8.30;69.94
50394;BME280;36308;46.312;25.288;2023-03-22T00:52:29;95895.22;;;8.30;70.21
50394;BME280;36308;46.312;25.288;2023-03-22T00:54:55;95888.50;;;8.28;70.28
50394;BME280;36308;46.312;25.288;2023-03-22T00:57:22;95897.09;;;8.30;69.85
50394;BME280;36308;46.312;25.288;2023-03-22T00:59:48;95894.41;;;8.30;70.32
50394;BME280;36308;46.312;25.288;2023-03-22T01:02:14;95887.66;;;8.27;70.35
50394;BME280;36308;46.312;25.288;2023-03-22T01:04:41;95879.34;;;8.24;70.60
50394;BME280;36308;46.312;25.288;2023-03-22T01:07:16;95886.63;;;8.28;70.06
50394;BME280;36308;46.312;25.288;2023-03-22T01:09:45;95878.50;;;8.23;70.31
50394;BME280;36308;46.312;25.288;2023-03-22T01:12:11;95886.84;;;8.27;70.26
50394;BME280;36308;46.312;25.288;2023-03-22T01:14:38;95890.34;;;8.27;69.96
50394;BME280;36308;46.312;25.288;2023-03-22T01:17:04;95885.81;;;8.28;70.51
50394;BME280;36308;46.312;25.288;2023-03-22T01:19:32;95884.19;;;8.27;70.46
50394;BME280;36308;46.312;25.288;2023-03-22T01:21:57;95887.66;;;8.27;70.26
50394;BME280;36308;46.312;25.288;2023-03-22T01:24:23;95889.53;;;8.27;70.51
50394;BME280;36308;46.312;25.288;2023-03-22T01:26:49;95884.19;;;8.27;70.28
50394;BME280;36308;46.312;25.288;2023-03-22T01:29:15;95884.19;;;8.27;70.34
50394;BME280;36308;46.312;25.288;2023-03-22T01:31:41;95874.44;;;8.21;70.69
50394;BME280;36308;46.312;25.288;2023-03-22T01:34:06;95865.06;;;8.18;70.02
50394;BME280;36308;46.312;25.288;2023-03-22T01:36:32;95884.19;;;8.27;70.61
50394;BME280;36308;46.312;25.288;2023-03-22T01:38:57;95871.88;;;8.26;70.01
50394;BME280;36308;46.312;25.288;2023-03-22T01:41:23;95878.50;;;8.23;70.31
50394;BME280;36308;46.312;25.288;2023-03-22T01:44:09;95874.53;;;8.26;70.69
50394;BME280;36308;46.312;25.288;2023-03-22T01:46:35;95876.94;;;8.27;70.52
50394;BME280;36308;46.312;25.288;2023-03-22T01:49:02;95874.28;;;8.27;70.16
50394;BME280;36308;46.312;25.288;2023-03-22T01:51:30;95878.59;;;8.28;70.80
50394;BME280;36308;46.312;25.288;2023-03-22T01:54:02;95881.03;;;8.30;70.68
50394;BME280;36308;46.312;25.288;2023-03-22T01:56:32;95886.38;;;8.30;70.57
50394;BME280;36308;46.312;25.288;2023-03-22T01:59:00;95881.03;;;8.30;70.41
50394;BME280;36308;46.312;25.288;2023-03-22T02:01:26;95882.06;;;8.29;70.25
50394;BME280;36308;46.312;25.288;2023-03-22T02:06:29;95883.69;;;8.30;70.27
50394;BME280;36308;46.312;25.288;2023-03-22T02:08:56;95877.22;;;8.26;70.66
50394;BME280;36308;46.312;25.288;2023-03-22T02:11:44;95885.81;;;8.28;70.34
50394;BME280;36308;46.312;25.288;2023-03-22T02:20:45;95877.22;;;8.26;71.01
50394;BME280;36308;46.312;25.288;2023-03-22T02:29:06;95871.88;;;8.26;70.33
50394;BME280;36308;46.312;25.288;2023-03-22T02:37:47;95884.69;;;8.24;70.37
50394;BME280;36308;46.312;25.288;2023-03-22T02:43:27;95882.81;;;8.24;70.54
50394;BME280;36308;46.312;25.288;2023-03-22T02:48:39;95887.38;;;8.24;70.91
50394;BME280;36308;46.312;25.288;2023-03-22T02:51:47;95890.53;;;8.21;71.05
50394;BME280;36308;46.312;25.288;2023-03-22T02:54:17;95871.06;;;8.08;70.81
50394;BME280;36308;46.312;25.288;2023-03-22T02:56:52;95889.72;;;8.20;71.28
50394;BME280;36308;46.312;25.288;2023-03-22T02:59:22;95891.31;;;8.21;70.74
50394;BME280;36308;46.312;25.288;2023-03-22T03:01:52;95904.47;;;8.23;71.31
50394;BME280;36308;46.312;25.288;2023-03-22T03:04:24;95894.84;;;8.22;70.90
50394;BME280;36308;46.312;25.288;2023-03-22T03:06:52;95893.75;;;8.23;71.58
50394;BME280;36308;46.312;25.288;2023-03-22T03:09:19;95899.13;;;8.23;70.77
50394;BME280;36308;46.312;25.288;2023-03-22T03:11:48;95886.81;;;8.22;71.25
50394;BME280;36308;46.312;25.288;2023-03-22T03:14:28;95902.03;;;8.21;71.27
50394;BME280;36308;46.312;25.288;2023-03-22T03:17:16;95892.31;;;8.15;71.24
50394;BME280;36308;46.312;25.288;2023-03-22T03:30:54;95885.66;;;8.18;70.79
50394;BME280;36308;46.312;25.288;2023-03-22T03:33:24;95896.38;;;8.18;71.39
50394;BME280;36308;46.312;25.288;2023-03-22T03:35:57;95890.19;;;8.17;71.37
50394;BME280;36308;46.312;25.288;2023-03-22T03:38:30;95906.59;;;8.21;71.39
50394;BME280;36308;46.312;25.288;2023-03-22T03:41:11;95892.63;;;8.19;71.31
50394;BME280;36308;46.312;25.288;2023-03-22T03:43:38;95904.97;;;8.20;71.50
50394;BME280;36308;46.312;25.288;2023-03-22T03:46:06;95899.63;;;8.20;71.43
50394;BME280;36308;46.312;25.288;2023-03-22T03:48:33;95904.97;;;8.20;71.50
50394;BME280;36308;46.312;25.288;2023-03-22T03:51:01;95901.75;;;8.18;71.21
50394;BME280;36308;46.312;25.288;2023-03-22T03:53:27;95910.34;;;8.20;71.41
50394;BME280;36308;46.312;25.288;2023-03-22T03:55:53;95912.44;;;8.18;71.32
50394;BME280;36308;46.312;25.288;2023-03-22T03:58:19;95895.41;;;8.07;71.52
50394;BME280;36308;46.312;25.288;2023-03-22T04:00:46;95909.22;;;8.16;71.44
50394;BME280;36308;46.312;25.288;2023-03-22T04:03:12;95914.56;;;8.16;71.48
50394;BME280;36308;46.312;25.288;2023-03-22T04:05:38;95916.66;;;8.14;72.03
50394;BME280;36308;46.312;25.288;2023-03-22T04:08:04;95927.38;;;8.14;71.63
50394;BME280;36308;46.312;25.288;2023-03-22T04:10:30;95927.84;;;8.10;71.43
50394;BME280;36308;46.312;25.288;2023-03-22T04:12:55;95933.53;;;8.14;71.39
50394;BME280;36308;46.312;25.288;2023-03-22T04:15:21;95933.78;;;8.13;71.33
50394;BME280;36308;46.312;25.288;2023-03-22T04:17:48;95937.53;;;8.12;71.22
50394;BME280;36308;46.312;25.288;2023-03-22T04:20:13;95939.06;;;8.07;71.44
50394;BME280;36308;46.312;25.288;2023-03-22T04:22:40;95946.59;;;8.10;71.85
50394;BME280;36308;46.312;25.288;2023-03-22T04:25:11;95931.69;;;7.98;71.46
50394;BME280;36308;46.312;25.288;2023-03-22T04:27:38;95950.91;;;8.12;71.94
50394;BME280;36308;46.312;25.288;2023-03-22T04:30:06;95949.28;;;8.10;71.62
50394;BME280;36308;46.312;25.288;2023-03-22T04:32:35;95949.28;;;8.10;71.52
50394;BME280;36308;46.312;25.288;2023-03-22T04:35:01;95943.13;;;8.10;72.17
50394;BME280;36308;46.312;25.288;2023-03-22T04:37:27;95953.03;;;8.09;72.26
50394;BME280;36308;46.312;25.288;2023-03-22T04:39:52;95948.25;;;8.12;71.82
50394;BME280;36308;46.312;25.288;2023-03-22T04:42:18;95953.03;;;8.09;72.26
50394;BME280;36308;46.312;25.288;2023-03-22T04:44:44;95958.94;;;8.12;72.16
50394;BME280;36308;46.312;25.288;2023-03-22T04:47:10;95961.63;;;8.12;71.82
50394;BME280;36308;46.312;25.288;2023-03-22T04:49:35;95942.44;;;8.03;71.76
50394;BME280;36308;46.312;25.288;2023-03-22T04:52:01;95943.19;;;7.98;71.98
50394;BME280;36308;46.312;25.288;2023-03-22T04:54:26;95951.38;;;8.08;71.91
50394;BME280;36308;46.312;25.288;2023-03-22T04:56:52;95958.38;;;8.09;72.32
50394;BME280;36308;46.312;25.288;2023-03-22T04:59:18;95953.84;;;8.10;72.01
50394;BME280;36308;46.312;25.288;2023-03-22T05:01:48;95960.56;;;8.13;72.01
50394;BME280;36308;46.312;25.288;2023-03-22T05:04:15;95944.91;;;8.04;71.91
50394;BME280;36308;46.312;25.288;2023-03-22T05:06:41;95957.88;;;8.13;72.00
50394;BME280;36308;46.312;25.288;2023-03-22T05:09:06;95968.13;;;8.16;72.38
50394;BME280;36308;46.312;25.288;2023-03-22T05:11:32;95961.13;;;8.15;72.66
50394;BME280;36308;46.312;25.288;2023-03-22T05:13:58;95955.44;;;8.11;72.28
50394;BME280;36308;46.312;25.288;2023-03-22T05:16:24;95968.69;;;8.18;72.53
50394;BME280;36308;46.312;25.288;2023-03-22T05:18:50;95973.78;;;8.19;72.17
50394;BME280;36308;46.312;25.288;2023-03-22T05:21:20;95976.22;;;8.21;71.96
50394;BME280;36308;46.312;25.288;2023-03-22T05:23:47;95980.53;;;8.22;72.33
50394;BME280;36308;46.312;25.288;2023-03-22T05:26:16;95971.38;;;8.18;71.91
50394;BME280;36308;46.312;25.288;2023-03-22T05:28:45;95990.19;;;8.23;72.23
50394;BME280;36308;46.312;25.288;2023-03-22T05:31:10;95983.22;;;8.22;72.22
50394;BME280;36308;46.312;25.288;2023-03-22T05:33:38;95978.66;;;8.22;72.18
50394;BME280;36308;46.312;25.288;2023-03-22T05:36:06;95979.22;;;8.24;72.60
50394;BME280;36308;46.312;25.288;2023-03-22T05:38:32;95969.16;;;8.15;72.35
50394;BME280;36308;46.312;25.288;2023-03-22T05:40:58;95987.59;;;8.28;72.13
50394;BME280;36308;46.312;25.288;2023-03-22T05:43:23;95996.19;;;8.30;72.34
50394;BME280;36308;46.312;25.288;2023-03-22T05:45:49;95994.56;;;8.29;72.12
50394;BME280;36308;46.312;25.288;2023-03-22T05:48:15;96001.06;;;8.33;72.12
50394;BME280;36308;46.312;25.288;2023-03-22T05:50:41;96001.06;;;8.33;72.03
50394;BME280;36308;46.312;25.288;2023-03-22T05:53:06;95995.38;;;8.29;72.49
50394;BME280;36308;46.312;25.288;2023-03-22T05:55:32;96000.56;;;8.36;72.69
50394;BME280;36308;46.312;25.288;2023-03-22T05:57:58;96010.00;;;8.39;72.57
50394;BME280;36308;46.312;25.288;2023-03-22T06:00:25;96015.69;;;8.42;72.00
50394;BME280;36308;46.312;25.288;2023-03-22T06:02:51;96011.16;;;8.43;72.37
50394;BME280;36308;46.312;25.288;2023-03-22T06:05:21;96018.94;;;8.44;72.30
50394;BME280;36308;46.312;25.288;2023-03-22T06:07:46;96013.47;;;8.39;72.37
50394;BME280;36308;46.312;25.288;2023-03-22T06:10:13;96024.84;;;8.46;72.10
50394;BME280;36308;46.312;25.288;2023-03-22T06:12:39;96020.91;;;8.49;72.30
50394;BME280;36308;46.312;25.288;2023-03-22T06:15:06;96024.38;;;8.49;71.95
50394;BME280;36308;46.312;25.288;2023-03-22T06:17:32;96022.28;;;8.52;72.29
50394;BME280;36308;46.312;25.288;2023-03-22T06:19:58;96029.00;;;8.54;72.53
50394;BME280;36308;46.312;25.288;2023-03-22T06:22:24;96028.53;;;8.57;72.42
50394;BME280;36308;46.312;25.288;2023-03-22T06:24:49;96022.28;;;8.52;72.49
50394;BME280;36308;46.312;25.288;2023-03-22T06:27:15;96039.56;;;8.61;72.29
50394;BME280;36308;46.312;25.288;2023-03-22T06:29:42;96034.19;;;8.61;71.91
50394;BME280;36308;46.312;25.288;2023-03-22T06:32:08;96036.41;;;8.64;71.73
50394;BME280;36308;46.312;25.288;2023-03-22T06:34:33;96031.84;;;8.64;71.65
50394;BME280;36308;46.312;25.288;2023-03-22T06:36:59;96041.81;;;8.69;71.59
50394;BME280;36308;46.312;25.288;2023-03-22T06:39:25;96031.59;;;8.66;71.68
50394;BME280;36308;46.312;25.288;2023-03-22T06:41:51;96045.63;;;8.73;71.96
50394;BME280;36308;46.312;25.288;2023-03-22T06:44:17;96040.03;;;8.75;71.14
50394;BME280;36308;46.312;25.288;2023-03-22T06:46:42;96052.63;;;8.74;71.63
50394;BME280;36308;46.312;25.288;2023-03-22T06:49:08;96056.44;;;8.78;71.59
50394;BME280;36308;46.312;25.288;2023-03-22T06:51:35;96051.09;;;8.78;71.61
50394;BME280;36308;46.312;25.288;2023-03-22T06:54:00;96046.03;;;8.82;72.07
50394;BME280;36308;46.312;25.288;2023-03-22T06:56:26;96053.81;;;8.83;71.59
50394;BME280;36308;46.312;25.288;2023-03-22T06:58:52;96034.91;;;8.73;71.72
50394;BME280;36308;46.312;25.288;2023-03-22T07:01:19;96061.97;;;8.88;71.46
50394;BME280;36308;46.312;25.288;2023-03-22T07:03:45;96056.59;;;8.88;71.18
50394;BME280;36308;46.312;25.288;2023-03-22T07:06:11;96067.06;;;8.90;71.39
50394;BME280;36308;46.312;25.288;2023-03-22T07:08:36;96065.22;;;8.90;70.88
50394;BME280;36308;46.312;25.288;2023-03-22T07:11:05;96064.69;;;8.94;71.33
50394;BME280;36308;46.312;25.288;2023-03-22T07:13:31;96068.75;;;8.96;71.50
50394;BME280;36308;46.312;25.288;2023-03-22T07:15:58;96071.19;;;8.98;71.05
50394;BME280;36308;46.312;25.288;2023-03-22T07:18:24;96072.84;;;8.99;71.59
50394;BME280;36308;46.312;25.288;2023-03-22T07:20:50;96073.41;;;9.01;71.38
50394;BME280;36308;46.312;25.288;2023-03-22T07:23:16;96077.47;;;9.03;71.60
50394;BME280;36308;46.312;25.288;2023-03-22T07:25:43;96065.84;;;8.98;71.23
50394;BME280;36308;46.312;25.288;2023-03-22T07:28:08;96080.47;;;9.07;71.58
50394;BME280;36308;46.312;25.288;2023-03-22T07:30:36;96072.97;;;9.09;71.09
50394;BME280;36308;46.312;25.288;2023-03-22T07:33:04;96075.41;;;9.10;71.93
50394;BME280;36308;46.312;25.288;2023-03-22T07:35:30;96082.97;;;9.14;71.65
50394;BME280;36308;46.312;25.288;2023-03-22T07:37:55;96077.38;;;9.15;71.52
50394;BME280;36308;46.312;25.288;2023-03-22T07:40:21;96069.22;;;9.10;71.46
50394;BME280;36308;46.312;25.288;2023-03-22T07:42:48;96076.84;;;9.18;71.65
50394;BME280;36308;46.312;25.288;2023-03-22T07:45:15;96079.03;;;9.21;71.55
50394;BME280;36308;46.312;25.288;2023-03-22T07:47:41;96090.31;;;9.23;71.39
50394;BME280;36308;46.312;25.288;2023-03-22T07:50:08;96088.19;;;9.25;70.88
50394;BME280;36308;46.312;25.288;2023-03-22T07:52:36;96083.41;;;9.27;70.92
50394;BME280;36308;46.312;25.288;2023-03-22T07:55:01;96085.03;;;9.28;71.17
50394;BME280;36308;46.312;25.288;2023-03-22T07:57:26;96085.59;;;9.30;70.96
50394;BME280;36308;46.312;25.288;2023-03-22T07:59:52;96085.09;;;9.34;70.47
50394;BME280;36308;46.312;25.288;2023-03-22T08:02:17;96088.34;;;9.36;70.58
50394;BME280;36308;46.312;25.288;2023-03-22T08:04:43;96090.78;;;9.37;70.86
50394;BME280;36308;46.312;25.288;2023-03-22T08:07:08;96084.94;;;9.40;71.05
50394;BME280;36308;46.312;25.288;2023-03-22T08:09:36;96090.59;;;9.44;71.15
50394;BME280;36308;46.312;25.288;2023-03-22T08:12:02;96095.25;;;9.48;71.38
50394;BME280;36308;46.312;25.288;2023-03-22T08:14:27;96092.03;;;9.51;71.04
50394;BME280;36308;46.312;25.288;2023-03-22T08:16:53;96093.16;;;9.56;71.33
50394;BME280;36308;46.312;25.288;2023-03-22T08:19:18;96101.31;;;9.61;71.16
50394;BME280;36308;46.312;25.288;2023-03-22T08:21:44;96093.78;;;9.63;71.25
50394;BME280;36308;46.312;25.288;2023-03-22T08:24:10;96101.09;;;9.67;70.94
50394;BME280;36308;46.312;25.288;2023-03-22T08:26:35;96097.91;;;9.70;70.38
50394;BME280;36308;46.312;25.288;2023-03-22T08:29:01;96102.78;;;9.74;71.00
50394;BME280;36308;46.312;25.288;2023-03-22T08:31:27;96101.16;;;9.73;70.31
50394;BME280;36308;46.312;25.288;2023-03-22T08:33:52;96103.66;;;9.79;70.74
50394;BME280;36308;46.312;25.288;2023-03-22T08:36:19;96114.69;;;9.83;70.30
50394;BME280;36308;46.312;25.288;2023-03-22T08:38:47;96104.53;;;9.85;70.70
50394;BME280;36308;46.312;25.288;2023-03-22T08:41:13;96108.84;;;9.86;70.05
50394;BME280;36308;46.312;25.288;2023-03-22T08:43:40;96104.03;;;9.88;69.67
50394;BME280;36308;46.312;25.288;2023-03-22T08:46:06;96113.69;;;9.89;70.09
50394;BME280;36308;46.312;25.288;2023-03-22T08:48:31;96107.84;;;9.92;70.51
50394;BME280;36308;46.312;25.288;2023-03-22T08:50:58;96111.34;;;9.93;69.99
50394;BME280;36308;46.312;25.288;2023-03-22T08:53:25;96112.69;;;9.95;70.50
50394;BME280;36308;46.312;25.288;2023-03-22T08:55:50;96108.13;;;9.96;69.92
50394;BME280;36308;46.312;25.288;2023-03-22T08:58:16;96113.25;;;9.97;69.49
50394;BME280;36308;46.312;25.288;2023-03-22T09:00:45;96116.50;;;9.99;70.03
50394;BME280;36308;46.312;25.288;2023-03-22T09:03:11;96111.66;;;9.96;69.51
50394;BME280;36308;46.312;25.288;2023-03-22T09:05:39;96120.31;;;10.03;69.52
50394;BME280;36308;46.312;25.288;2023-03-22T09:08:05;96114.69;;;10.05;69.47
50394;BME280;36308;46.312;25.288;2023-03-22T09:10:31;96117.09;;;10.06;69.26
50394;BME280;36308;46.312;25.288;2023-03-22T09:12:57;96121.44;;;10.07;68.99
50394;BME280;36308;46.312;25.288;2023-03-22T09:15:22;96122.56;;;10.11;69.46
50394;BME280;36308;46.312;25.288;2023-03-22T09:17:48;96122.03;;;10.15;69.92
50394;BME280;36308;46.312;25.288;2023-03-22T09:20:14;96121.53;;;10.18;70.12
50394;BME280;36308;46.312;25.288;2023-03-22T09:22:39;96122.66;;;10.22;69.83
50394;BME280;36308;46.312;25.288;2023-03-22T09:25:05;96129.41;;;10.24;69.21
50394;BME280;36308;46.312;25.288;2023-03-22T09:27:31;96124.94;;;10.30;70.03
50394;BME280;36308;46.312;25.288;2023-03-22T09:29:57;96126.03;;;10.34;70.10
50394;BME280;36308;46.312;25.288;2023-03-22T09:32:23;96118.53;;;10.36;69.47
50394;BME280;36308;46.312;25.288;2023-03-22T09:34:48;96130.41;;;10.40;69.20
50394;BME280;36308;46.312;25.288;2023-03-22T09:37:14;96127.19;;;10.43;69.66
50394;BME280;36308;46.312;25.288;2023-03-22T09:39:40;96124.50;;;10.43;70.02
50394;BME280;36308;46.312;25.288;2023-03-22T09:45:42;96128.38;;;10.52;68.50
50394;BME280;36308;46.312;25.288;2023-03-22T09:48:18;96120.03;;;10.54;68.95
50394;BME280;36308;46.312;25.288;2023-03-22T09:50:50;96119.78;;;10.56;68.96
50394;BME280;36308;46.312;25.288;2023-03-22T09:53:17;96120.34;;;10.58;68.71
50394;BME280;36308;46.312;25.288;2023-03-22T10:06:44;96117.19;;;10.66;68.30
50394;BME280;36308;46.312;25.288;2023-03-22T10:09:49;96119.63;;;10.67;68.25
50394;BME280;36308;46.312;25.288;2023-03-22T10:12:26;96116.16;;;10.72;68.02
50394;BME280;36308;46.312;25.288;2023-03-22T10:15:32;96117.81;;;10.73;69.04
50394;BME280;36308;46.312;25.288;2023-03-22T10:18:01;96113.53;;;10.77;68.46
50394;BME280;36308;46.312;25.288;2023-03-22T10:20:59;96115.13;;;10.78;68.84
50394;BME280;36308;46.312;25.288;2023-03-22T10:23:38;96117.34;;;10.81;67.97
50394;BME280;36308;46.312;25.288;2023-03-22T10:26:05;96111.44;;;10.84;68.45
50394;BME280;36308;46.312;25.288;2023-03-22T10:28:40;96111.44;;;10.84;68.30
50394;BME280;36308;46.312;25.288;2023-03-22T10:31:13;96104.16;;;10.85;68.26
50394;BME280;36308;46.312;25.288;2023-03-22T10:34:22;96113.06;;;10.85;68.19
50394;BME280;36308;46.312;25.288;2023-03-22T10:36:47;96083.41;;;10.75;67.49
50394;BME280;36308;46.312;25.288;2023-03-22T10:41:43;96106.09;;;10.89;67.49
50394;BME280;36308;46.312;25.288;2023-03-22T10:44:15;96097.75;;;10.91;67.17
50394;BME280;36308;46.312;25.288;2023-03-22T10:46:43;96098.31;;;10.93;67.71
50394;BME280;36308;46.312;25.288;2023-03-22T10:49:24;96097.75;;;10.91;67.68
50394;BME280;36308;46.312;25.288;2023-03-22T10:51:55;96096.47;;;10.99;67.55
50394;BME280;36308;46.312;25.288;2023-03-22T10:54:23;96088.41;;;10.99;67.48
50394;BME280;36308;46.312;25.288;2023-03-22T10:56:50;96089.81;;;11.06;67.77
50394;BME280;36308;46.312;25.288;2023-03-22T11:02:25;96087.44;;;11.15;66.74
50394;BME280;36308;46.312;25.288;2023-03-22T11:05:02;96085.84;;;11.19;67.17
50394;BME280;36308;46.312;25.288;2023-03-22T11:07:42;96074.78;;;11.16;66.71
50394;BME280;36308;46.312;25.288;2023-03-22T11:12:34;96084.81;;;11.30;67.14
50394;BME280;36308;46.312;25.288;2023-03-22T11:15:01;96077.84;;;11.29;66.90
50394;BME280;36308;46.312;25.288;2023-03-22T11:17:27;96079.50;;;11.41;66.87
50394;BME280;36308;46.312;25.288;2023-03-22T11:19:55;96077.66;;;11.46;67.08
50394;BME280;36308;46.312;25.288;2023-03-22T11:22:29;96079.28;;;11.52;66.75
50394;BME280;36308;46.312;25.288;2023-03-22T11:24:58;96058.53;;;11.48;66.54
50394;BME280;36308;46.312;25.288;2023-03-22T11:27:31;96076.66;;;11.63;65.96
50394;BME280;36308;46.312;25.288;2023-03-22T11:30:19;96078.53;;;11.67;65.83
50394;BME280;36308;46.312;25.288;2023-03-22T11:32:45;96068.59;;;11.73;66.52
50394;BME280;36308;46.312;25.288;2023-03-22T11:35:23;96051.69;;;11.88;67.15
50394;BME280;36308;46.312;25.288;2023-03-22T11:37:54;96068.50;;;12.26;67.17
50394;BME280;36308;46.312;25.288;2023-03-22T11:40:25;96062.31;;;12.51;66.65
50394;BME280;36308;46.312;25.288;2023-03-22T11:43:10;96060.16;;;12.89;65.75
50394;BME280;36308;46.312;25.288;2023-03-22T11:45:42;96070.91;;;13.30;65.01
50394;BME280;36308;46.312;25.288;2023-03-22T11:48:36;96055.41;;;13.61;64.25
50394;BME280;36308;46.312;25.288;2023-03-22T11:51:11;96048.00;;;13.87;63.50
50394;BME280;36308;46.312;25.288;2023-03-22T11:53:39;96054.63;;;14.15;62.30
50394;BME280;36308;46.312;25.288;2023-03-22T11:56:09;96054.25;;;14.32;61.56
50394;BME280;36308;46.312;25.288;2023-03-22T11:59:22;96046.06;;;14.43;60.37
50394;BME280;36308;46.312;25.288;2023-03-22T12:01:38;96016.59;;;14.41;60.13
50394;BME280;36308;46.312;25.288;2023-03-22T12:04:09;96016.72;;;14.60;59.93
50394;BME280;36308;46.312;25.288;2023-03-22T12:06:39;96032.97;;;14.89;59.50
50394;BME280;36308;46.312;25.288;2023-03-22T12:09:40;96016.13;;;14.98;59.34
50394;BME280;36308;46.312;25.288;2023-03-22T12:12:40;96030.78;;;15.45;58.67
50394;BME280;36308;46.312;25.288;2023-03-22T12:15:19;96015.38;;;15.64;57.04
50394;BME280;36308;46.312;25.288;2023-03-22T12:17:57;96015.09;;;15.90;56.78
50394;BME280;36308;46.312;25.288;2023-03-22T12:20:40;96018.84;;;16.13;56.43
50394;BME280;36308;46.312;25.288;2023-03-22T12:23:16;96013.75;;;16.44;55.38
50394;BME280;36308;46.312;25.288;2023-03-22T12:25:46;96035.16;;;16.78;54.69
50394;BME280;36308;46.312;25.288;2023-03-22T12:28:17;96018.38;;;16.95;52.46
50394;BME280;36308;46.312;25.288;2023-03-22T12:30:52;96015.78;;;17.04;52.36
50394;BME280;36308;46.312;25.288;2023-03-22T12:33:25;96017.78;;;17.26;50.25
50394;BME280;36308;46.312;25.288;2023-03-22T12:35:56;96017.22;;;17.29;50.67
50394;BME280;36308;46.312;25.288;2023-03-22T12:38:47;96009.94;;;17.38;50.67
50394;BME280;36308;46.312;25.288;2023-03-22T12:41:17;96013.91;;;17.60;50.79
50394;BME280;36308;46.312;25.288;2023-03-22T12:44:02;96003.50;;;17.76;49.63
50394;BME280;36308;46.312;25.288;2023-03-22T12:46:51;96002.91;;;17.93;49.95
50394;BME280;36308;46.312;25.288;2023-03-22T12:51:54;95991.94;;;18.21;49.41
50394;BME280;36308;46.312;25.288;2023-03-22T12:54:24;96001.88;;;18.39;48.47
50394;BME280;36308;46.312;25.288;2023-03-22T12:56:51;95988.63;;;18.46;47.92
50394;BME280;36308;46.312;25.288;2023-03-22T12:59:25;95996.53;;;18.56;47.54
50394;BME280;36308;46.312;25.288;2023-03-22T13:04:25;95991.72;;;18.76;45.92
50394;BME280;36308;46.312;25.288;2023-03-22T13:09:19;95996.56;;;18.79;45.87
50394;BME280;36308;46.312;25.288;2023-03-22T13:32:59;95994.78;;;18.38;42.92
50394;BME280;36308;46.312;25.288;2023-03-22T13:35:43;95993.75;;;18.25;43.25
50394;BME280;36308;46.312;25.288;2023-03-22T13:59:29;96002.59;;;16.27;44.04
50394;BME280;36308;46.312;25.288;2023-03-22T14:04:38;95991.06;;;16.02;44.86
50394;BME280;36308;46.312;25.288;2023-03-22T14:09:48;95991.41;;;15.76;45.06
50394;BME280;36308;46.312;25.288;2023-03-22T14:12:20;95985.00;;;15.67;45.60
50394;BME280;36308;46.312;25.288;2023-03-22T14:14:56;95976.06;;;15.67;46.10
50394;BME280;36308;46.312;25.288;2023-03-22T14:20:25;95979.25;;;15.74;45.44
50394;BME280;36308;46.312;25.288;2023-03-22T14:23:00;95978.97;;;15.75;45.62
50394;BME280;36308;46.312;25.288;2023-03-22T14:25:30;95967.31;;;15.75;45.85
50394;BME280;36308;46.312;25.288;2023-03-22T14:27:57;95982.63;;;15.85;45.76
50394;BME280;36308;46.312;25.288;2023-03-22T14:32:51;95975.28;;;15.85;44.91
50394;BME280;36308;46.312;25.288;2023-03-22T14:35:25;95984.38;;;15.94;44.64
50394;BME280;36308;46.312;25.288;2023-03-22T14:37:59;95987.16;;;15.89;44.67
50394;BME280;36308;46.312;25.288;2023-03-22T14:40:31;95984.75;;;15.88;44.71
50394;BME280;36308;46.312;25.288;2023-03-22T14:45:49;95983.13;;;15.87;44.05
50394;BME280;36308;46.312;25.288;2023-03-22T14:48:32;95980.50;;;15.82;44.08
50394;BME280;36308;46.312;25.288;2023-03-22T14:51:02;95983.25;;;15.76;44.63
50394;BME280;36308;46.312;25.288;2023-03-22T14:53:34;95980.03;;;15.74;44.00
50394;BME280;36308;46.312;25.288;2023-03-22T14:56:09;95982.22;;;15.72;43.53
50394;BME280;36308;46.312;25.288;2023-03-22T14:58:38;95984.41;;;15.70;43.10
50394;BME280;36308;46.312;25.288;2023-03-22T15:01:11;95981.19;;;15.68;43.34
50394;BME280;36308;46.312;25.288;2023-03-22T15:03:38;95961.03;;;15.55;43.27
50394;BME280;36308;46.312;25.288;2023-03-22T15:06:07;95972.09;;;15.59;42.83
50394;BME280;36308;46.312;25.288;2023-03-22T15:08:33;95979.44;;;15.59;43.05
50394;BME280;36308;46.312;25.288;2023-03-22T15:11:03;95981.09;;;15.54;43.37
50394;BME280;36308;46.312;25.288;2023-03-22T15:13:31;95968.47;;;15.45;43.50